createdAt,value
2019-01-27T00:02:05.354Z,7.90
2019-01-27T00:04:37.467Z,7.90
2019-01-27T00:07:08.953Z,7.90
2019-01-27T00:09:40.381Z,7.90
2019-01-27T00:12:11.979Z,7.90
2019-01-27T00:14:43.855Z,7.90
2019-01-27T00:17:16.743Z,7.90
2019-01-27T00:19:49.414Z,7.90
2019-01-27T00:22:21.371Z,7.90
2019-01-27T00:24:52.893Z,8.00
2019-01-27T00:27:24.707Z,8.00
2019-01-27T00:29:57.492Z,7.90
2019-01-27T00:32:29.307Z,7.90
2019-01-27T00:35:01.115Z,7.90
2019-01-27T00:37:32.762Z,7.90
2019-01-27T00:40:05.496Z,7.90
2019-01-27T00:42:38.528Z,7.90
2019-01-27T00:45:13.228Z,7.90
2019-01-27T00:47:44.739Z,7.90
2019-01-27T00:50:17.464Z,7.90
2019-01-27T00:52:48.878Z,7.90
2019-01-27T00:55:21.307Z,7.90
2019-01-27T00:57:53.545Z,7.90
2019-01-27T01:00:26.096Z,7.90
2019-01-27T01:02:58.114Z,7.90
2019-01-27T01:05:30.116Z,7.90
2019-01-27T01:08:01.832Z,7.90
2019-01-27T01:10:37.094Z,7.80
2019-01-27T01:13:09.027Z,7.80
2019-01-27T01:15:40.516Z,7.90
2019-01-27T01:18:13.456Z,7.90
2019-01-27T01:20:46.341Z,7.90
2019-01-27T01:23:17.688Z,7.90
2019-01-27T01:25:49.702Z,7.90
2019-01-27T01:28:22.444Z,7.90
2019-01-27T01:30:55.727Z,7.90
2019-01-27T01:33:28.265Z,7.90
2019-01-27T01:36:00.599Z,7.90
2019-01-27T01:38:32.354Z,7.90
2019-01-27T01:41:03.699Z,7.90
2019-01-27T01:43:36.667Z,7.90
2019-01-27T01:46:08.931Z,7.90
2019-01-27T01:48:40.479Z,7.90
2019-01-27T01:51:12.501Z,8.00
2019-01-27T01:53:44.291Z,8.00
2019-01-27T01:56:15.706Z,7.90
2019-01-27T01:58:47.219Z,7.90
2019-01-27T02:01:18.931Z,7.90
2019-01-27T02:03:50.243Z,7.90
2019-01-27T02:06:22.701Z,7.90
2019-01-27T02:08:54.105Z,7.90
2019-01-27T02:11:27.745Z,7.90
2019-01-27T02:13:59.071Z,7.90
2019-01-27T02:16:31.920Z,7.90
2019-01-27T02:19:03.806Z,7.90
2019-01-27T02:21:36.647Z,7.80
2019-01-27T02:24:09.719Z,7.80
2019-01-27T02:26:41.704Z,7.80
2019-01-27T02:29:14.771Z,7.80
2019-01-27T02:31:49.139Z,7.80
2019-01-27T02:34:20.902Z,7.80
2019-01-27T02:36:52.452Z,7.90
2019-01-27T02:39:27.254Z,7.80
2019-01-27T02:41:58.818Z,7.80
2019-01-27T02:44:30.594Z,7.80
2019-01-27T02:47:04.065Z,7.80
2019-01-27T02:49:36.955Z,7.80
2019-01-27T02:52:08.414Z,7.70
2019-01-27T02:54:40.179Z,7.70
2019-01-27T02:57:11.886Z,7.60
2019-01-27T02:59:43.588Z,7.60
2019-01-27T03:02:15.043Z,7.70
2019-01-27T03:04:46.440Z,7.70
2019-01-27T03:07:33.283Z,7.60
2019-01-27T03:10:07.246Z,7.60
2019-01-27T03:12:40.589Z,7.60
2019-01-27T03:15:15.363Z,7.60
2019-01-27T03:17:46.698Z,7.50
2019-01-27T03:20:18.590Z,7.50
2019-01-27T03:22:50.308Z,7.40
2019-01-27T03:25:22.278Z,7.50
2019-01-27T03:27:53.942Z,7.50
2019-01-27T03:30:25.747Z,7.50
2019-01-27T03:32:57.570Z,7.40
2019-01-27T03:35:29.088Z,7.40
2019-01-27T03:38:01.592Z,7.40
2019-01-27T03:40:33.133Z,7.40
2019-01-27T03:43:04.598Z,7.40
2019-01-27T03:45:36.471Z,7.40
2019-01-27T03:48:07.954Z,7.30
2019-01-27T03:50:39.611Z,7.40
2019-01-27T03:53:11.121Z,7.40
2019-01-27T03:55:42.573Z,7.40
2019-01-27T03:58:14.381Z,7.40
2019-01-27T04:00:46.397Z,7.30
2019-01-27T04:03:18.066Z,7.40
2019-01-27T04:05:53.178Z,7.30
2019-01-27T04:08:24.551Z,7.30
2019-01-27T04:10:56.050Z,7.30
2019-01-27T04:13:27.609Z,7.30
2019-01-27T04:16:00.120Z,7.20
2019-01-27T04:18:32.023Z,7.20
2019-01-27T04:21:03.413Z,7.20
2019-01-27T04:23:34.923Z,7.30
2019-01-27T04:26:06.477Z,7.20
2019-01-27T04:28:38.515Z,7.20
2019-01-27T04:31:10.055Z,7.20
2019-01-27T04:33:42.081Z,7.10
2019-01-27T04:36:13.981Z,7.10
2019-01-27T04:38:46.621Z,7.10
2019-01-27T04:41:19.607Z,7.10
2019-01-27T04:43:51.432Z,7.10
2019-01-27T04:46:23.025Z,7.10
2019-01-27T04:48:55.465Z,7.10
2019-01-27T04:51:26.899Z,7.20
2019-01-27T04:53:59.282Z,7.10
2019-01-27T04:56:31.257Z,7.10
2019-01-27T04:59:02.617Z,7.10
2019-01-27T05:01:36.214Z,7.20
2019-01-27T05:04:26.739Z,7.10
2019-01-27T05:06:59.350Z,7.10
2019-01-27T05:09:30.884Z,7.10
2019-01-27T05:12:02.584Z,7.00
2019-01-27T05:14:34.154Z,7.10
2019-01-27T05:17:06.215Z,7.00
2019-01-27T05:19:37.651Z,7.00
2019-01-27T05:22:09.173Z,7.00
2019-01-27T05:24:40.766Z,7.10
2019-01-27T05:27:13.836Z,7.00
2019-01-27T05:29:45.496Z,7.10
2019-01-27T05:32:17.288Z,7.00
2019-01-27T05:34:50.242Z,7.00
2019-01-27T05:37:21.898Z,7.10
2019-01-27T05:39:53.822Z,7.00
2019-01-27T05:42:25.393Z,7.00
2019-01-27T05:44:57.063Z,7.00
2019-01-27T05:47:28.503Z,7.00
2019-01-27T05:50:00.099Z,6.90
2019-01-27T05:52:32.080Z,7.00
2019-01-27T05:55:03.888Z,6.90
2019-01-27T05:57:35.494Z,6.90
2019-01-27T06:00:11.698Z,6.90
2019-01-27T06:02:43.413Z,6.90
2019-01-27T06:05:16.050Z,6.90
2019-01-27T06:07:49.690Z,6.80
2019-01-27T06:10:21.281Z,6.80
2019-01-27T06:12:52.870Z,6.80
2019-01-27T06:15:24.259Z,6.80
2019-01-27T06:17:55.681Z,6.80
2019-01-27T06:20:29.934Z,6.70
2019-01-27T06:23:01.715Z,6.80
2019-01-27T06:25:33.655Z,6.80
2019-01-27T06:28:05.207Z,6.70
2019-01-27T06:30:38.464Z,6.70
2019-01-27T06:33:25.746Z,6.70
2019-01-27T06:35:57.387Z,6.70
2019-01-27T06:38:30.607Z,6.70
2019-01-27T06:41:02.525Z,6.70
2019-01-27T06:43:34.018Z,6.70
2019-01-27T06:46:07.603Z,6.70
2019-01-27T06:48:39.131Z,6.70
2019-01-27T06:51:10.603Z,6.70
2019-01-27T06:53:42.219Z,6.70
2019-01-27T06:56:13.817Z,6.70
2019-01-27T06:59:03.045Z,6.70
2019-01-27T07:01:45.987Z,6.70
2019-01-27T07:04:28.637Z,6.70
2019-01-27T07:07:31.831Z,6.70
2019-01-27T07:10:32.169Z,6.70
2019-01-27T07:13:09.349Z,6.70
2019-01-27T07:16:15.307Z,6.70
2019-01-27T07:19:14.691Z,6.70
2019-01-27T07:22:14.429Z,6.70
2019-01-27T07:25:05.531Z,6.70
2019-01-27T07:27:57.295Z,6.70
2019-01-27T07:30:56.488Z,6.70
2019-01-27T07:33:46.218Z,6.70
2019-01-27T07:36:33.908Z,6.70
2019-01-27T07:39:44.632Z,6.60
2019-01-27T07:42:47.826Z,6.70
2019-01-27T07:45:29.290Z,6.70
2019-01-27T07:48:19.841Z,6.70
2019-01-27T07:51:09.295Z,6.70
2019-01-27T07:54:04.001Z,6.70
2019-01-27T07:57:03.525Z,6.60
2019-01-27T07:59:50.293Z,6.60
2019-01-27T08:02:35.691Z,6.60
2019-01-27T08:05:30.416Z,6.60
2019-01-27T08:08:23.575Z,6.70
2019-01-27T08:11:13.155Z,6.60
2019-01-27T08:14:16.033Z,6.60
2019-01-27T08:17:11.829Z,6.60
2019-01-27T08:19:50.671Z,6.60
2019-01-27T08:22:31.863Z,6.60
2019-01-27T08:25:22.302Z,6.60
2019-01-27T08:28:16.429Z,6.60
2019-01-27T08:30:57.070Z,6.60
2019-01-27T08:33:46.584Z,6.70
2019-01-27T08:36:49.292Z,6.60
2019-01-27T08:39:43.776Z,6.70
2019-01-27T08:42:31.583Z,6.70
2019-01-27T08:45:31.277Z,6.80
2019-01-27T08:48:04.706Z,6.80
2019-01-27T08:50:36.228Z,6.80
2019-01-27T08:53:09.108Z,6.80
2019-01-27T08:55:40.749Z,6.80
2019-01-27T08:58:12.282Z,6.80
2019-01-27T09:00:51.351Z,6.80
2019-01-27T09:03:32.354Z,6.80
2019-01-27T09:06:19.614Z,6.80
2019-01-27T09:09:13.233Z,6.80
2019-01-27T09:12:06.995Z,6.80
2019-01-27T09:14:44.640Z,6.90
2019-01-27T09:17:33.758Z,6.80
2019-01-27T09:20:22.868Z,6.90
2019-01-27T09:23:10.464Z,6.80
2019-01-27T09:26:02.788Z,6.80
2019-01-27T09:28:53.256Z,6.80
2019-01-27T09:31:44.079Z,6.80
2019-01-27T09:34:29.522Z,6.80
2019-01-27T09:37:28.895Z,6.80
2019-01-27T09:40:14.955Z,6.80
2019-01-27T09:42:58.410Z,6.80
2019-01-27T09:45:38.993Z,6.80
2019-01-27T09:48:29.703Z,6.80
2019-01-27T09:51:10.684Z,6.80
2019-01-27T09:53:55.209Z,6.80
2019-01-27T09:56:52.140Z,6.80
2019-01-27T09:59:48.596Z,6.90
2019-01-27T10:02:25.290Z,6.80
2019-01-27T10:05:02.913Z,6.70
2019-01-27T10:07:51.524Z,6.60
2019-01-27T10:10:42.001Z,6.60
2019-01-27T10:13:47.520Z,6.60
2019-01-27T10:16:33.779Z,6.50
2019-01-27T10:19:20.726Z,6.40
2019-01-27T10:22:13.974Z,6.30
2019-01-27T10:25:17.308Z,6.20
2019-01-27T10:28:01.017Z,6.20
2019-01-27T10:30:49.195Z,6.10
2019-01-27T10:33:51.777Z,6.20
2019-01-27T10:36:35.587Z,6.10
2019-01-27T10:39:28.783Z,6.00
2019-01-27T10:42:19.181Z,5.90
2019-01-27T10:45:10.646Z,5.90
2019-01-27T10:48:10.709Z,5.90
2019-01-27T10:50:56.351Z,5.80
2019-01-27T10:53:48.335Z,5.80
2019-01-27T10:56:40.081Z,5.80
2019-01-27T10:59:34.516Z,5.80
2019-01-27T11:02:36.733Z,5.90
2019-01-27T11:05:31.470Z,5.80
2019-01-27T11:08:21.091Z,5.80
2019-01-27T11:11:27.670Z,5.80
2019-01-27T11:14:23.869Z,5.70
2019-01-27T11:17:12.876Z,5.80
2019-01-27T11:19:49.892Z,5.80
2019-01-27T11:22:55.321Z,5.70
2019-01-27T11:25:36.280Z,5.70
2019-01-27T11:28:26.687Z,5.70
2019-01-27T11:31:24.223Z,5.60
2019-01-27T11:34:19.315Z,5.50
2019-01-27T11:37:12.903Z,5.60
2019-01-27T11:40:02.656Z,5.60
2019-01-27T11:42:53.237Z,5.60
2019-01-27T11:45:31.722Z,5.50
2019-01-27T11:48:17.633Z,5.40
2019-01-27T11:50:54.702Z,5.40
2019-01-27T11:53:26.329Z,5.30
2019-01-27T11:55:59.153Z,5.30
2019-01-27T11:58:30.909Z,5.30
2019-01-27T12:01:04.578Z,5.30
2019-01-27T12:03:36.333Z,5.30
2019-01-27T12:06:09.425Z,5.40
2019-01-27T12:08:42.122Z,5.40
2019-01-27T12:11:13.731Z,5.30
2019-01-27T12:13:46.930Z,5.30
2019-01-27T12:16:21.688Z,5.10
2019-01-27T12:18:53.024Z,5.10
2019-01-27T12:21:26.376Z,5.00
2019-01-27T12:23:57.779Z,5.00
2019-01-27T12:26:30.668Z,5.10
2019-01-27T12:29:02.207Z,5.10
2019-01-27T12:31:34.736Z,5.10
2019-01-27T12:34:07.214Z,5.00
2019-01-27T12:36:39.140Z,5.00
2019-01-27T12:39:15.726Z,4.90
2019-01-27T12:41:47.593Z,4.90
2019-01-27T12:44:22.091Z,5.00
2019-01-27T12:46:54.366Z,5.00
2019-01-27T12:49:26.037Z,5.10
2019-01-27T12:51:57.963Z,5.10
2019-01-27T12:54:29.608Z,5.20
2019-01-27T12:57:02.979Z,5.30
2019-01-27T12:59:34.838Z,5.40
2019-01-27T13:02:06.984Z,5.40
2019-01-27T13:04:38.419Z,5.30
2019-01-27T13:07:11.261Z,5.40
2019-01-27T13:09:43.038Z,5.40
2019-01-27T13:12:15.863Z,5.40
2019-01-27T13:14:47.325Z,5.40
2019-01-27T13:17:18.811Z,5.40
2019-01-27T13:19:57.626Z,5.40
2019-01-27T13:22:29.843Z,5.40
2019-01-27T13:25:01.602Z,5.40
2019-01-27T13:27:33.296Z,5.50
2019-01-27T13:30:06.736Z,5.50
2019-01-27T13:32:38.465Z,5.40
2019-01-27T13:35:10.239Z,5.50
2019-01-27T13:37:41.934Z,5.40
2019-01-27T13:40:17.855Z,5.40
2019-01-27T13:42:49.960Z,5.30
2019-01-27T13:45:24.184Z,5.40
2019-01-27T13:47:58.933Z,5.40
2019-01-27T13:50:30.972Z,5.40
2019-01-27T13:53:02.849Z,5.40
2019-01-27T13:55:34.734Z,5.40
2019-01-27T13:58:07.418Z,5.40
2019-01-27T14:00:39.572Z,5.40
2019-01-27T14:03:11.482Z,5.40
2019-01-27T14:05:43.717Z,5.40
2019-01-27T14:08:15.650Z,5.40
2019-01-27T14:10:47.127Z,5.40
2019-01-27T14:13:18.685Z,5.30
2019-01-27T14:15:53.374Z,5.30
2019-01-27T14:18:25.061Z,5.30
2019-01-27T14:20:56.770Z,5.30
2019-01-27T14:23:28.218Z,5.20
2019-01-27T14:25:59.718Z,5.30
2019-01-27T14:28:31.609Z,5.30
2019-01-27T14:31:07.030Z,5.20
2019-01-27T14:33:40.619Z,5.30
2019-01-27T14:36:12.981Z,5.30
2019-01-27T14:38:45.560Z,5.30
2019-01-27T14:41:17.152Z,5.30
2019-01-27T14:43:49.071Z,5.40
2019-01-27T14:46:21.686Z,5.30
2019-01-27T14:48:53.327Z,5.40
2019-01-27T14:51:26.490Z,5.40
2019-01-27T14:54:00.735Z,5.50
2019-01-27T14:56:32.149Z,5.60
2019-01-27T14:59:03.691Z,5.60
2019-01-27T15:01:35.451Z,5.60
2019-01-27T15:04:07.127Z,5.60
2019-01-27T15:06:38.829Z,5.50
2019-01-27T15:09:10.737Z,5.50
2019-01-27T15:11:43.513Z,5.50
2019-01-27T15:14:15.623Z,5.50
2019-01-27T15:16:47.176Z,5.50
2019-01-27T15:19:18.691Z,5.50
2019-01-27T15:21:50.137Z,5.50
2019-01-27T15:24:22.005Z,5.50
2019-01-27T15:26:54.778Z,5.50
2019-01-27T15:29:26.147Z,5.50
2019-01-27T15:31:58.847Z,5.40
2019-01-27T15:34:30.841Z,5.30
2019-01-27T15:37:02.633Z,5.30
2019-01-27T15:39:35.921Z,5.30
2019-01-27T15:42:07.970Z,5.20
2019-01-27T15:44:40.704Z,5.30
2019-01-27T15:47:12.574Z,5.30
2019-01-27T15:49:44.753Z,5.30
2019-01-27T15:52:16.237Z,5.20
2019-01-27T15:54:48.766Z,5.20
2019-01-27T15:57:21.064Z,5.10
2019-01-27T15:59:52.945Z,5.10
2019-01-27T16:02:25.939Z,5.10
2019-01-27T16:04:59.380Z,5.00
2019-01-27T16:07:31.145Z,5.00
2019-01-27T16:10:04.934Z,5.00
2019-01-27T16:12:36.911Z,5.00
2019-01-27T16:15:11.672Z,4.90
2019-01-27T16:17:43.477Z,4.90
2019-01-27T16:20:17.053Z,4.90
2019-01-27T16:23:13.541Z,4.90
2019-01-27T16:25:45.324Z,4.90
2019-01-27T16:28:17.473Z,4.80
2019-01-27T16:31:01.733Z,4.80
2019-01-27T16:33:41.791Z,4.90
2019-01-27T16:36:13.588Z,4.90
2019-01-27T16:38:45.334Z,4.80
2019-01-27T16:41:18.619Z,4.70
2019-01-27T16:43:51.589Z,4.70
2019-01-27T16:46:22.970Z,4.70
2019-01-27T16:48:57.066Z,4.60
2019-01-27T16:51:28.464Z,4.60
2019-01-27T16:54:00.162Z,4.60
2019-01-27T16:56:31.677Z,4.60
2019-01-27T16:59:03.989Z,4.60
2019-01-27T17:01:37.552Z,4.60
2019-01-27T17:04:09.034Z,4.50
2019-01-27T17:06:40.922Z,4.40
2019-01-27T17:09:14.152Z,4.40
2019-01-27T17:11:47.374Z,4.40
2019-01-27T17:14:19.345Z,4.40
2019-01-27T17:16:51.102Z,4.50
2019-01-27T17:19:22.584Z,4.50
2019-01-27T17:21:54.150Z,4.70
2019-01-27T17:24:25.665Z,4.80
2019-01-27T17:26:57.392Z,5.00
2019-01-27T17:29:30.561Z,4.90
2019-01-27T17:32:02.312Z,4.60
2019-01-27T17:34:33.999Z,4.40
2019-01-27T17:37:05.321Z,4.30
2019-01-27T17:39:38.711Z,4.20
2019-01-27T17:42:11.965Z,4.10
2019-01-27T17:44:44.973Z,4.00
2019-01-27T17:47:20.283Z,4.10
2019-01-27T17:49:52.053Z,4.00
2019-01-27T17:52:23.885Z,4.00
2019-01-27T17:54:55.628Z,4.00
2019-01-27T17:57:55.606Z,4.00
2019-01-27T18:00:44.985Z,4.10
2019-01-27T18:03:35.204Z,4.10
2019-01-27T18:06:15.445Z,4.20
2019-01-27T18:09:03.926Z,4.10
2019-01-27T18:11:43.800Z,4.10
2019-01-27T18:14:20.853Z,4.20
2019-01-27T18:16:53.691Z,4.30
2019-01-27T18:19:28.746Z,4.30
2019-01-27T18:22:02.465Z,4.30
2019-01-27T18:24:34.029Z,4.40
2019-01-27T18:27:06.737Z,4.40
2019-01-27T18:29:38.502Z,4.40
2019-01-27T18:32:12.166Z,4.50
2019-01-27T18:34:44.339Z,4.60
2019-01-27T18:37:15.632Z,4.60
2019-01-27T18:39:47.083Z,4.70
2019-01-27T18:42:19.635Z,4.70
2019-01-27T18:44:51.079Z,4.80
2019-01-27T18:47:22.827Z,4.80
2019-01-27T18:49:56.126Z,4.70
2019-01-27T18:52:31.377Z,4.70
2019-01-27T18:55:22.636Z,4.70
2019-01-27T18:58:13.734Z,4.80
2019-01-27T19:00:53.743Z,4.80
2019-01-27T19:03:34.160Z,4.80
2019-01-27T19:06:24.779Z,4.80
2019-01-27T19:09:33.346Z,4.90
2019-01-27T19:12:33.400Z,4.90
2019-01-27T19:15:40.830Z,4.90
2019-01-27T19:18:32.374Z,4.90
2019-01-27T19:21:31.472Z,4.90
2019-01-27T19:24:31.772Z,5.00
2019-01-27T19:27:20.700Z,5.10
2019-01-27T19:30:14.006Z,5.10
2019-01-27T19:33:16.483Z,5.10
2019-01-27T19:36:06.465Z,5.10
2019-01-27T19:39:00.018Z,5.20
2019-01-27T19:41:43.373Z,5.20
2019-01-27T19:44:25.085Z,5.20
2019-01-27T19:47:07.876Z,5.20
2019-01-27T19:49:50.691Z,5.20
2019-01-27T19:52:40.989Z,5.20
2019-01-27T19:55:28.420Z,5.20
2019-01-27T19:58:06.550Z,5.10
2019-01-27T20:00:56.764Z,4.90
2019-01-27T20:03:39.811Z,4.90
2019-01-27T20:06:41.672Z,4.80
2019-01-27T20:09:32.836Z,4.90
2019-01-27T20:12:23.652Z,4.90
2019-01-27T20:15:01.824Z,4.90
2019-01-27T20:17:52.935Z,4.70
2019-01-27T20:20:46.437Z,4.80
2019-01-27T20:23:39.894Z,4.80
2019-01-27T20:26:19.923Z,4.80
2019-01-27T20:29:15.052Z,4.70
2019-01-27T20:32:06.039Z,4.70
2019-01-27T20:35:04.464Z,4.70
2019-01-27T20:37:41.344Z,4.70
2019-01-27T20:40:34.098Z,4.60
2019-01-27T20:43:24.644Z,4.70
2019-01-27T20:46:18.440Z,4.60
2019-01-27T20:49:06.216Z,4.60
2019-01-27T20:51:59.771Z,4.60
2019-01-27T20:54:51.812Z,4.60
2019-01-27T20:57:36.985Z,4.60
2019-01-27T21:00:21.438Z,4.60
2019-01-27T21:03:11.098Z,4.50
2019-01-27T21:05:57.609Z,4.50
2019-01-27T21:08:54.456Z,4.40
2019-01-27T21:11:44.060Z,4.40
2019-01-27T21:14:35.839Z,4.30
2019-01-27T21:17:29.251Z,4.30
2019-01-27T21:20:10.394Z,4.30
2019-01-27T21:22:42.147Z,4.30
2019-01-27T21:25:14.396Z,4.30
2019-01-27T21:27:46.680Z,4.30
2019-01-27T21:30:19.572Z,4.20
2019-01-27T21:32:55.758Z,4.20
2019-01-27T21:35:25.097Z,4.20
2019-01-27T21:37:57.158Z,4.20
2019-01-27T21:40:29.431Z,4.20
2019-01-27T21:43:01.214Z,4.10
2019-01-27T21:45:32.905Z,4.10
2019-01-27T21:48:05.871Z,4.10
2019-01-27T21:50:37.372Z,4.10
2019-01-27T21:53:09.357Z,4.10
2019-01-27T21:55:41.417Z,4.10
2019-01-27T21:58:15.682Z,4.10
2019-01-27T22:00:47.463Z,4.10
2019-01-27T22:03:21.888Z,4.10
2019-01-27T22:05:54.778Z,4.10
2019-01-27T22:08:26.258Z,4.10
2019-01-27T22:10:57.815Z,4.10
2019-01-27T22:13:29.719Z,4.10
2019-01-27T22:16:02.528Z,4.20
2019-01-27T22:18:35.240Z,4.20
2019-01-27T22:21:08.314Z,4.20
2019-01-27T22:23:41.720Z,4.20
2019-01-27T22:26:16.753Z,4.20
2019-01-27T22:28:49.845Z,4.10
2019-01-27T22:31:23.237Z,4.20
2019-01-27T22:33:58.008Z,4.20
2019-01-27T22:36:30.825Z,4.20
2019-01-27T22:39:06.354Z,4.10
2019-01-27T22:41:39.127Z,4.20
2019-01-27T22:44:11.826Z,4.20
2019-01-27T22:46:44.251Z,4.20
2019-01-27T22:49:15.785Z,4.20
2019-01-27T22:51:47.899Z,4.20
2019-01-27T22:54:19.579Z,4.30
2019-01-27T22:56:50.935Z,4.30
2019-01-27T22:59:22.644Z,4.40
2019-01-27T23:01:54.211Z,4.40
2019-01-27T23:04:25.731Z,4.50
2019-01-27T23:06:57.202Z,4.50
2019-01-27T23:09:28.841Z,4.60
2019-01-27T23:12:01.023Z,4.70
2019-01-27T23:14:32.623Z,4.70
2019-01-27T23:17:04.600Z,4.70
2019-01-27T23:19:36.355Z,4.80
2019-01-27T23:22:07.977Z,4.70
2019-01-27T23:24:40.095Z,4.60
2019-01-27T23:27:13.685Z,4.60
2019-01-27T23:29:45.717Z,4.60
2019-01-27T23:32:17.276Z,4.60
2019-01-27T23:34:49.087Z,4.60
2019-01-27T23:37:20.665Z,4.60
2019-01-27T23:39:54.184Z,4.50
2019-01-27T23:42:25.629Z,4.50
2019-01-27T23:44:57.320Z,4.50
2019-01-27T23:47:28.894Z,4.60
2019-01-27T23:50:00.416Z,4.60
2019-01-27T23:52:34.164Z,4.60
2019-01-27T23:55:06.093Z,4.70
2019-01-27T23:57:38.610Z,4.60
